Time,TemperatureF,DewpointF,PressureIn,WindDirection,WindDirectionDegrees,WindSpeedMPH,WindSpeedGustMPH,Humidity,HourlyPrecipIn,Conditions,Clouds,dailyrainin,SolarRadiationWatts/m^2,SoftwareType,DateUTC
2013-07-20 00:06:00,82.0,75.0,29.70,SW,225,6.0,12.0,80,0.00,,,0.00,0,weatherlink.com 1.10,2013-07-20 04:06:00,
2013-07-20 00:21:00,81.9,75.0,29.70,WSW,248,4.0,13.0,80,0.00,,,0.00,0,weatherlink.com 1.10,2013-07-20 04:21:00,
2013-07-20 00:36:00,81.8,75.0,29.68,WSW,246,7.0,14.0,80,0.00,,,0.00,0,weatherlink.com 1.10,2013-07-20 04:36:00,
2013-07-20 00:51:00,81.7,75.0,29.68,WSW,240,13.0,14.0,80,0.00,,,0.00,0,weatherlink.com 1.10,2013-07-20 04:51:00,
2013-07-20 01:06:00,81.5,75.0,29.68,SW,218,8.0,14.0,80,0.00,,,0.00,0,weatherlink.com 1.10,2013-07-20 05:06:00,
2013-07-20 01:21:00,81.4,75.0,29.68,SW,235,5.0,15.0,80,0.00,,,0.00,0,weatherlink.com 1.10,2013-07-20 05:21:00,
2013-07-20 01:36:00,81.4,75.0,29.68,SW,216,5.0,16.0,80,0.00,,,0.00,0,weatherlink.com 1.10,2013-07-20 05:36:00,
2013-07-20 01:51:00,81.1,74.0,29.68,WSW,239,7.0,15.0,80,0.00,,,0.00,0,weatherlink.com 1.10,2013-07-20 05:51:00,
2013-07-20 02:06:00,81.1,74.0,29.69,WNW,284,3.0,12.0,80,0.00,,,0.00,0,weatherlink.com 1.10,2013-07-20 06:06:00,
2013-07-20 02:21:00,81.0,75.0,29.68,West,266,5.0,12.0,81,0.00,,,0.00,0,weatherlink.com 1.10,2013-07-20 06:21:00,
2013-07-20 02:36:00,80.7,75.0,29.69,WSW,255,4.0,7.0,82,0.00,,,0.00,0,weatherlink.com 1.10,2013-07-20 06:36:00,
2013-07-20 02:51:00,80.4,75.0,29.68,WSW,249,5.0,9.0,83,0.00,,,0.00,0,weatherlink.com 1.10,2013-07-20 06:51:00,
2013-07-20 03:06:00,80.2,75.0,29.68,West,273,3.0,10.0,83,0.00,,,0.00,0,weatherlink.com 1.10,2013-07-20 07:06:00,
2013-07-20 03:21:00,80.3,75.0,29.68,West,262,5.0,9.0,83,0.00,,,0.00,0,weatherlink.com 1.10,2013-07-20 07:21:00,
2013-07-20 03:36:00,80.3,75.0,29.67,West,269,0.0,10.0,83,0.00,,,0.00,0,weatherlink.com 1.10,2013-07-20 07:36:00,
2013-07-20 03:51:00,80.4,75.0,29.68,West,267,2.0,7.0,83,0.00,,,0.00,0,weatherlink.com 1.10,2013-07-20 07:51:00,
2013-07-20 04:06:00,80.3,75.0,29.67,WNW,283,1.0,11.0,83,0.00,,,0.00,0,weatherlink.com 1.10,2013-07-20 08:06:00,
2013-07-20 04:21:00,80.3,74.0,29.68,WNW,283,7.0,10.0,82,0.00,,,0.00,0,weatherlink.com 1.10,2013-07-20 08:21:00,
2013-07-20 04:36:00,80.1,75.0,29.68,WNW,297,3.0,11.0,83,0.00,,,0.00,0,weatherlink.com 1.10,2013-07-20 08:36:00,
2013-07-20 04:51:00,79.8,75.0,29.67,WSW,258,4.0,6.0,84,0.00,,,0.00,0,weatherlink.com 1.10,2013-07-20 08:51:00,
2013-07-20 05:06:00,79.4,74.0,29.68,West,271,5.0,7.0,84,0.00,,,0.00,0,weatherlink.com 1.10,2013-07-20 09:06:00,
2013-07-20 05:21:00,77.9,71.0,29.69,WNW,290,2.0,14.0,79,0.00,,,0.00,0,weatherlink.com 1.10,2013-07-20 09:21:00,
2013-07-20 05:36:00,76.5,72.0,29.68,WNW,301,0.0,3.0,85,0.01,,,0.01,0,weatherlink.com 1.10,2013-07-20 09:36:00,
2013-07-20 05:51:00,76.0,72.0,29.69,WNW,301,0.0,3.0,88,0.01,,,0.01,0,weatherlink.com 1.10,2013-07-20 09:51:00,
2013-07-20 06:06:00,75.6,73.0,29.69,WNW,301,1.0,5.0,91,0.01,,,0.01,0,weatherlink.com 1.10,2013-07-20 10:06:00,
2013-07-20 06:21:00,75.1,73.0,29.69,WNW,301,3.0,4.0,92,0.02,,,0.02,0,weatherlink.com 1.10,2013-07-20 10:21:00,
2013-07-20 06:36:00,74.2,72.0,29.70,WSW,243,1.0,6.0,93,0.01,,,0.02,5,weatherlink.com 1.10,2013-07-20 10:36:00,
2013-07-20 06:51:00,74.1,72.0,29.70,WSW,243,1.0,4.0,94,0.01,,,0.02,30,weatherlink.com 1.10,2013-07-20 10:51:00,
2013-07-20 07:06:00,73.9,72.0,29.71,WSW,252,0.0,6.0,94,0.01,,,0.02,23,weatherlink.com 1.10,2013-07-20 11:06:00,
2013-07-20 07:21:00,74.1,72.0,29.70,WNW,289,1.0,4.0,93,0.00,,,0.02,33,weatherlink.com 1.10,2013-07-20 11:21:00,
2013-07-20 07:36:00,74.7,72.0,29.71,WNW,297,3.0,6.0,90,0.00,,,0.02,40,weatherlink.com 1.10,2013-07-20 11:36:00,
2013-07-20 07:51:00,74.8,71.0,29.71,NW,309,2.0,4.0,89,0.00,,,0.02,46,weatherlink.com 1.10,2013-07-20 11:51:00,
2013-07-20 08:07:00,75.2,71.0,29.70,NW,309,0.0,4.0,87,0.00,,,0.02,179,weatherlink.com 1.10,2013-07-20 12:07:00,
2013-07-20 08:22:00,76.2,71.0,29.71,NW,308,3.0,7.0,85,0.00,,,0.02,237,weatherlink.com 1.10,2013-07-20 12:22:00,
2013-07-20 08:37:00,76.3,71.0,29.72,NW,312,5.0,9.0,84,0.00,,,0.02,232,weatherlink.com 1.10,2013-07-20 12:37:00,
2013-07-20 08:52:00,76.7,71.0,29.73,NW,322,2.0,7.0,82,0.00,,,0.02,206,weatherlink.com 1.10,2013-07-20 12:52:00,
2013-07-20 09:07:00,77.7,71.0,29.74,NNW,327,1.0,6.0,81,0.00,,,0.02,348,weatherlink.com 1.10,2013-07-20 13:07:00,
2013-07-20 09:22:00,78.5,71.0,29.74,NW,318,3.0,6.0,77,0.00,,,0.02,404,weatherlink.com 1.10,2013-07-20 13:22:00,
2013-07-20 09:37:00,79.6,71.0,29.75,NW,323,2.0,5.0,74,0.00,,,0.02,543,weatherlink.com 1.10,2013-07-20 13:37:00,
2013-07-20 09:52:00,80.3,71.0,29.74,NW,320,1.0,5.0,72,0.00,,,0.02,207,weatherlink.com 1.10,2013-07-20 13:52:00,
2013-07-20 10:07:00,80.0,71.0,29.74,NW,314,0.0,4.0,73,0.00,,,0.02,295,weatherlink.com 1.10,2013-07-20 14:07:00,
2013-07-20 10:22:00,80.5,71.0,29.75,WNW,287,3.0,5.0,73,0.00,,,0.02,589,weatherlink.com 1.10,2013-07-20 14:22:00,
2013-07-20 10:37:00,81.1,71.0,29.76,WNW,282,1.0,4.0,71,0.00,,,0.02,610,weatherlink.com 1.10,2013-07-20 14:37:00,
2013-07-20 10:52:00,82.3,69.0,29.75,NW,307,1.0,6.0,64,0.00,,,0.02,654,weatherlink.com 1.10,2013-07-20 14:52:00,
2013-07-20 11:07:00,83.2,68.0,29.75,NNW,344,5.0,8.0,61,0.00,,,0.02,696,weatherlink.com 1.10,2013-07-20 15:07:00,
2013-07-20 11:22:00,84.2,67.0,29.76,NE,45,5.0,7.0,56,0.00,,,0.02,763,weatherlink.com 1.10,2013-07-20 15:22:00,
2013-07-20 11:37:00,85.1,69.0,29.75,WNW,303,3.0,8.0,59,0.00,,,0.02,768,weatherlink.com 1.10,2013-07-20 15:37:00,
2013-07-20 11:52:00,84.2,68.0,29.75,NW,325,2.0,7.0,59,0.00,,,0.02,703,weatherlink.com 1.10,2013-07-20 15:52:00,
2013-07-20 12:07:00,84.6,66.0,29.75,NNW,328,4.0,10.0,54,0.00,,,0.02,840,weatherlink.com 1.10,2013-07-20 16:07:00,
2013-07-20 12:22:00,84.7,66.0,29.75,North,4,4.0,7.0,53,0.00,,,0.02,879,weatherlink.com 1.10,2013-07-20 16:22:00,
2013-07-20 12:37:00,85.4,65.0,29.75,NNW,337,3.0,7.0,50,0.00,,,0.02,861,weatherlink.com 1.10,2013-07-20 16:37:00,
2013-07-20 12:52:00,86.1,66.0,29.76,North,4,0.0,7.0,52,0.00,,,0.02,904,weatherlink.com 1.10,2013-07-20 16:52:00,
2013-07-20 13:07:00,86.3,66.0,29.76,WNW,292,5.0,8.0,50,0.00,,,0.02,889,weatherlink.com 1.10,2013-07-20 17:07:00,
2013-07-20 13:22:00,86.4,67.0,29.75,WNW,303,8.0,8.0,53,0.00,,,0.02,925,weatherlink.com 1.10,2013-07-20 17:22:00,
2013-07-20 13:37:00,86.4,66.0,29.76,NW,310,2.0,7.0,51,0.00,,,0.02,909,weatherlink.com 1.10,2013-07-20 17:37:00,
2013-07-20 13:52:00,86.9,65.0,29.75,NE,47,10.0,10.0,48,0.00,,,0.02,900,weatherlink.com 1.10,2013-07-20 17:52:00,
2013-07-20 14:07:00,87.5,64.0,29.75,North,354,2.0,9.0,45,0.00,,,0.02,884,weatherlink.com 1.10,2013-07-20 18:07:00,
2013-07-20 14:22:00,87.9,64.0,29.75,WNW,301,3.0,10.0,45,0.00,,,0.02,898,weatherlink.com 1.10,2013-07-20 18:22:00,
2013-07-20 14:37:00,87.1,63.0,29.75,NNW,343,4.0,10.0,45,0.00,,,0.02,902,weatherlink.com 1.10,2013-07-20 18:37:00,
2013-07-20 14:52:00,87.2,63.0,29.73,WNW,295,6.0,9.0,45,0.00,,,0.02,911,weatherlink.com 1.10,2013-07-20 18:52:00,
2013-07-20 15:08:00,87.8,63.0,29.74,NNE,26,3.0,8.0,44,0.00,,,0.02,889,weatherlink.com 1.10,2013-07-20 19:08:00,
2013-07-20 15:23:00,89.0,64.0,29.74,NE,42,4.0,8.0,44,0.00,,,0.02,802,weatherlink.com 1.10,2013-07-20 19:23:00,
2013-07-20 15:38:00,88.5,65.0,29.75,NE,40,1.0,9.0,46,0.00,,,0.02,594,weatherlink.com 1.10,2013-07-20 19:38:00,
2013-07-20 15:53:00,86.9,64.0,29.75,NNE,18,0.0,8.0,47,0.00,,,0.02,329,weatherlink.com 1.10,2013-07-20 19:53:00,
2013-07-20 16:08:00,87.4,65.0,29.75,NE,37,0.0,7.0,48,0.00,,,0.02,791,weatherlink.com 1.10,2013-07-20 20:08:00,
2013-07-20 16:23:00,87.0,66.0,29.75,NW,322,0.0,6.0,49,0.00,,,0.02,817,weatherlink.com 1.10,2013-07-20 20:23:00,
2013-07-20 16:38:00,87.3,65.0,29.75,NNW,348,2.0,10.0,47,0.00,,,0.02,557,weatherlink.com 1.10,2013-07-20 20:38:00,
2013-07-20 17:08:00,86.9,65.0,29.73,NW,325,10.0,12.0,48,0.00,,,0.02,529,weatherlink.com 1.10,2013-07-20 21:08:00,
2013-07-20 17:23:00,85.7,65.0,29.73,North,350,4.0,9.0,51,0.00,,,0.02,364,weatherlink.com 1.10,2013-07-20 21:23:00,
2013-07-20 17:38:00,85.5,66.0,29.73,North,4,7.0,12.0,52,0.00,,,0.02,501,weatherlink.com 1.10,2013-07-20 21:38:00,
2013-07-20 17:53:00,86.0,66.0,29.74,NNW,328,7.0,10.0,52,0.00,,,0.02,387,weatherlink.com 1.10,2013-07-20 21:53:00,
2013-07-20 18:08:00,85.7,67.0,29.74,NE,45,6.0,13.0,53,0.00,,,0.02,621,weatherlink.com 1.10,2013-07-20 22:08:00,
2013-07-20 18:38:00,84.9,65.0,29.74,NNW,340,7.0,10.0,52,0.00,,,0.02,427,weatherlink.com 1.10,2013-07-20 22:38:00,
2013-07-20 18:53:00,83.4,64.0,29.73,NNW,341,6.0,13.0,53,0.00,,,0.02,207,weatherlink.com 1.10,2013-07-20 22:53:00,
2013-07-20 19:08:00,83.1,65.0,29.75,North,354,3.0,9.0,54,0.00,,,0.02,338,weatherlink.com 1.10,2013-07-20 23:08:00,
2013-07-20 19:23:00,84.1,65.0,29.75,North,354,1.0,10.0,53,0.00,,,0.02,283,weatherlink.com 1.10,2013-07-20 23:23:00,
2013-07-20 19:38:00,84.5,65.0,29.75,NW,316,1.0,6.0,52,0.00,,,0.02,214,weatherlink.com 1.10,2013-07-20 23:38:00,
2013-07-20 19:53:00,83.2,64.0,29.75,NW,325,4.0,9.0,53,0.00,,,0.02,151,weatherlink.com 1.10,2013-07-20 23:53:00,
2013-07-20 20:08:00,82.6,65.0,29.76,NNE,14,3.0,7.0,55,0.00,,,0.02,134,weatherlink.com 1.10,2013-07-21 00:08:00,
2013-07-20 20:38:00,82.0,65.0,29.76,North,354,3.0,7.0,56,0.00,,,0.02,69,weatherlink.com 1.10,2013-07-21 00:38:00,
2013-07-20 21:23:00,79.8,64.0,29.79,North,354,4.0,7.0,59,0.00,,,0.02,0,weatherlink.com 1.10,2013-07-21 01:23:00,
2013-07-20 21:53:00,78.7,64.0,29.80,North,354,3.0,4.0,61,0.00,,,0.02,0,weatherlink.com 1.10,2013-07-21 01:53:00,
2013-07-20 22:23:00,77.5,64.0,29.80,North,11,0.0,3.0,64,0.00,,,0.02,0,weatherlink.com 1.10,2013-07-21 02:23:00,
2013-07-20 22:38:00,76.6,64.0,29.80,North,11,0.0,2.0,66,0.00,,,0.02,0,weatherlink.com 1.10,2013-07-21 02:38:00,
2013-07-20 22:53:00,75.8,64.0,29.81,North,11,1.0,2.0,68,0.00,,,0.02,0,weatherlink.com 1.10,2013-07-21 02:53:00,
2013-07-20 23:08:00,75.1,65.0,29.81,North,11,0.0,1.0,70,0.00,,,0.02,0,weatherlink.com 1.10,2013-07-21 03:08:00,
2013-07-20 23:23:00,74.6,64.0,29.81,North,11,1.0,2.0,70,0.00,,,0.02,0,weatherlink.com 1.10,2013-07-21 03:23:00,
2013-07-20 23:38:00,74.2,64.0,29.81,North,11,0.0,2.0,70,0.00,,,0.02,0,weatherlink.com 1.10,2013-07-21 03:38:00,
2013-07-20 23:53:00,73.8,63.0,29.81,North,11,0.0,1.0,70,0.00,,,0.02,0,weatherlink.com 1.10,2013-07-21 03:53:00,